Flight Track Log - Related Links

Times and Time Zones

All times are in EDT time to prevent confusion due to time zone crossing. See the N591CA flight status page for this flight to view local times or setup timezone preferences in your user account.

Time Position Orientation Groundspeed Altitude Reporting Facility
EDT Latitude Longitude Course Direction KTS MPH feet Rate Location/Type
Mon 09:03:46 AM 41.5603 -81.4961 307° West 70 81 1,300  Level Cleveland Center
Mon 09:04:52 AM 41.5747 -81.5214 307° West 101 116 2,100 756 Climbing Cleveland Center
Mon 09:05:53 AM 41.5869 -81.5519 298° West 100 115 2,900 744 Climbing Cleveland Center
Mon 09:06:53 AM 41.5950 -81.5828 289° West 98 113 3,600 545 Climbing Cleveland Center
Mon 09:07:54 AM 41.6031 -81.6217 285° West 104 120 4,000 197 Climbing Cleveland Center
Mon 09:08:55 AM 41.6172 -81.6692 292° West 148 170 4,000  Level Cleveland Center
Mon 09:09:55 AM 41.6292 -81.7194 288° West 143 165 4,000 472 Level Cleveland Center
Mon 09:11:02 AM 41.6369 -81.7639 283° West 89 102 5,000 797 Climbing Cleveland Center
Mon 09:12:03 AM 41.6469 -81.8003 290° West 98 113 5,700 672 Climbing Cleveland Center
Mon 09:12:58 AM 41.6550 -81.8281 291° West 95 109 6,300 678 Climbing Cleveland Center
Mon 09:13:58 AM 41.6631 -81.8644 287° West 97 112 7,000 614 Climbing Cleveland Center
Mon 09:15:05 AM 41.6708 -81.9008 286° West 97 112 7,600 517 Climbing Cleveland Center
Mon 09:15:54 AM 41.6769 -81.9314 285° West 95 109 8,000 207 Climbing Cleveland Center
Mon 09:17:01 AM 41.6889 -81.9761 290° West 137 158 8,000 47 Level Cleveland Center
Mon 09:18:01 AM 41.6986 -82.0181 287° West 124 143 8,100 50 Climbing Cleveland Center
Mon 09:19:02 AM 41.7106 -82.0656 289° West 123 142 8,100  Level Cleveland Center
Mon 09:20:03 AM 41.7206 -82.1131 286° West 129 148 8,100  Level Cleveland Center
Mon 09:21:04 AM 41.7303 -82.1581 286° West 122 140 8,100  Level Cleveland Center
Mon 09:22:16 AM 41.7422 -82.2056 289° West 117 135 8,100  Level Cleveland Center
Mon 09:23:17 AM 41.7539 -82.2503 289° West 120 138 8,100  Level Cleveland Center
Mon 09:24:18 AM 41.7636 -82.2953 286° West 123 142 8,100  Level Cleveland Center
Mon 09:25:06 AM 41.7717 -82.3261 289° West 124 143 8,100  Level Cleveland Center
Mon 09:26:13 AM 41.7833 -82.3792 286° West 123 142 8,100 -54 Level Cleveland Center
Mon 09:26:57 AM 41.7933 -82.4075 295° West 123 142 8,000 -47 Descending Cleveland Center
Mon 09:28:22 AM 41.8089 -82.4692 289° West 127 146 8,000  Level Cleveland Center
Mon 09:29:23 AM 41.8186 -82.5167 285° West 123 142 8,000  Level Cleveland Center
Mon 09:30:30 AM 41.8281 -82.5644 285° West 121 139 8,000  Level Cleveland Center
Mon 09:31:31 AM 41.8400 -82.6067 291° West 120 138 8,000  Level Cleveland Center
Mon 09:32:32 AM 41.8644 -82.6381 316° Northwest 142 163 8,000 -98 Level Cleveland Center
Mon 09:33:33 AM 41.9017 -82.6533 343° North 143 165 7,800 -393 Descending Cleveland Center
Mon 09:34:34 AM 41.9408 -82.6769 336° Northwest 153 176 7,200 -672 Descending Cleveland Center
Mon 09:35:29 AM 41.9758 -82.6975 336° Northwest 150 173 6,500 -738 Descending Cleveland Center
Mon 09:36:36 AM 42.0106 -82.7350 321° Northwest 142 163 5,700 -724 Descending Cleveland Center
Mon 09:37:25 AM 42.0372 -82.7556 330° Northwest 145 167 5,100 -382 Descending Cleveland Center
Mon 09:38:26 AM 42.0789 -82.7681 347° North 154 177 5,000 -50 Descending Cleveland Center
Mon 09:39:26 AM 42.1203 -82.7750 353° North 146 168 5,000  Level Cleveland Center
Mon 09:40:27 AM 42.1639 -82.7822 353° North 145 167 5,000  Level Cleveland Center
Mon 09:41:28 AM 42.2033 -82.7975 344° North 145 167 5,000  Level Cleveland Center
Mon 09:42:23 AM 42.2364 -82.8100 344° North 140 161 5,000 -149 Level Cleveland Center
Mon 09:43:29 AM 42.2797 -82.8367 336° Northwest 159 183 4,700 -472 Descending Cleveland Center
Mon 09:44:30 AM 42.3189 -82.8578 338° Northwest 161 185 4,000 -328 Descending Cleveland Center
Mon 09:45:37 AM 42.3622 -82.8819 338° Northwest 141 162 4,000  Level Cleveland Center
Mon 09:46:44 AM 42.4033 -82.9031 339° North 143 165 4,000  Level Cleveland Center
Mon 09:47:50 AM 42.4425 -82.9242 338° Northwest 144 166 4,000  Level Cleveland Center
Mon 09:48:45 AM 42.4736 -82.9422 337° Northwest 142 163 4,000  Level Cleveland Center
Mon 09:49:40 AM 42.5106 -82.9606 340° North 142 163 4,000  Level Cleveland Center
Mon 09:50:40 AM 42.5478 -82.9817 337° Northwest 142 163 4,000  Level Cleveland Center
Mon 09:51:35 AM 42.5808 -82.9997 338° Northwest 138 159 4,000  Level Cleveland Center
Mon 09:52:29 AM 42.6136 -83.0208 335° Northwest 142 163 4,000  Level Cleveland Center
Mon 09:54:00 AM 42.6675 -83.0483 339° North  Level FlightAware
Mon 10:01:00 AM 42.9123 -83.1754 332° Northwest  Level FlightAware
Mon 10:02:00 AM 42.9459 -83.1994 332° Northwest  Level FlightAware
Mon 10:03:00 AM 42.9796 -83.2235 332° Northwest  Level FlightAware
Mon 10:04:00 AM 43.0132 -83.2475 332° Northwest  Level FlightAware
Mon 10:05:00 AM 43.0486 -83.2660 340° North  Level FlightAware
Mon 10:06:00 AM 43.0500 -83.2667 340° North  Level FlightAware
Mon 10:07:00 AM 43.0665 -83.2715 340° North  Level Estimated

Login

Don't have an account? Register now (free) for customized features, flight alerts, and more!